Time;durP1;ratioP1;P1;durP2;ratioP2;P2;SDS_P1;SDS_P2;PMS_P1;PMS_P2;Temp;Humidity;BMP_temperature;BMP_pressure;BME280_temperature;BME280_humidity;BME280_pressure;Samples;Min_cycle;Max_cycle;Signal;HPM_P1;HPM_P2
2023/06/22 00:00:49;;;;;;;9.20;5.73;;;;;;;21.09;100.00;99396.03;5072903;28;20215;-69
2023/06/22 00:03:16;;;;;;;9.30;5.43;;;;;;;21.09;100.00;99396.03;5072682;28;20690;-71
2023/06/22 00:05:43;;;;;;;10.37;5.60;;;;;;;21.15;100.00;99403.16;5071525;28;20274;-71
2023/06/22 00:08:10;;;;;;;12.57;5.67;;;;;;;21.17;100.00;99412.38;5073067;28;20205;-71
2023/06/22 00:10:37;;;;;;;12.80;6.13;;;;;;;21.15;100.00;99408.38;5072273;28;20289;-71
2023/06/22 00:13:04;;;;;;;11.57;5.90;;;;;;;21.14;100.00;99412.72;5071779;28;20205;-69
2023/06/22 00:15:30;;;;;;;8.70;5.63;;;;;;;21.14;100.00;99417.13;5071773;28;20206;-70
2023/06/22 00:17:59;;;;;;;9.80;6.33;;;;;;;21.16;100.00;99412.56;5072568;28;20209;-70
2023/06/22 00:20:27;;;;;;;9.47;5.93;;;;;;;21.15;100.00;99410.97;5072123;28;20195;-70
2023/06/22 00:22:54;;;;;;;9.43;5.60;;;;;;;21.17;100.00;99406.38;5071760;28;20690;-71
2023/06/22 00:25:22;;;;;;;9.13;5.40;;;;;;;21.16;100.00;99399.56;5071976;28;20606;-69
2023/06/22 00:27:49;;;;;;;9.83;5.67;;;;;;;21.14;100.00;99398.94;5072078;28;20213;-70
2023/06/22 00:30:16;;;;;;;10.73;6.17;;;;;;;21.21;100.00;99394.69;5070990;28;20687;-70
2023/06/22 00:32:44;;;;;;;12.20;5.67;;;;;;;21.22;100.00;99404.09;5072386;28;20227;-70
2023/06/22 00:35:13;;;;;;;10.03;5.57;;;;;;;21.21;100.00;99398.06;5072387;28;20697;-69
2023/06/22 00:37:42;;;;;;;9.63;5.57;;;;;;;21.21;100.00;99403.28;5070739;28;20222;-71
2023/06/22 00:40:11;;;;;;;9.73;5.40;;;;;;;21.20;100.00;99400.84;5070539;28;20236;-69
2023/06/22 00:42:39;;;;;;;7.90;5.37;;;;;;;21.20;100.00;99385.22;5070179;28;20508;-71
2023/06/22 00:45:07;;;;;;;9.90;5.47;;;;;;;21.23;100.00;99390.09;5071134;28;20682;-70
2023/06/22 00:47:35;;;;;;;9.47;5.70;;;;;;;21.18;100.00;99392.41;5071997;28;20228;-70
2023/06/22 00:50:03;;;;;;;8.70;5.50;;;;;;;21.20;100.00;99380.03;5071846;28;20334;-72
2023/06/22 00:52:34;;;;;;;9.27;5.80;;;;;;;21.20;100.00;99380.84;5071044;28;20226;-70
2023/06/22 00:55:03;;;;;;;9.47;5.77;;;;;;;21.24;100.00;99376.13;5071819;28;20305;-68
2023/06/22 00:57:30;;;;;;;9.13;6.07;;;;;;;21.24;100.00;99378.72;5071825;28;20225;-69
2023/06/22 00:59:57;;;;;;;8.80;5.53;;;;;;;21.26;100.00;99384.53;5070726;28;20206;-69
2023/06/22 01:02:24;;;;;;;8.93;5.80;;;;;;;21.32;100.00;99389.09;5071350;28;20244;-70
2023/06/22 01:04:50;;;;;;;8.27;5.47;;;;;;;21.38;100.00;99385.81;5072034;28;20202;-71
2023/06/22 01:07:32;;;;;;;7.72;4.97;;;;;;;21.51;100.00;99392.22;5070934;28;20233;-69
2023/06/22 01:10:08;;;;;;;10.37;5.97;;;;;;;21.52;100.00;99388.63;5070937;28;20219;-69
2023/06/22 01:12:41;;;;;;;9.57;5.77;;;;;;;21.47;100.00;99392.56;5071506;28;20718;-70
2023/06/22 01:15:12;;;;;;;10.60;5.77;;;;;;;21.43;100.00;99401.69;5071045;28;20206;-70
2023/06/22 01:17:44;;;;;;;8.65;4.93;;;;;;;21.41;100.00;99397.63;5071119;28;20215;-70
2023/06/22 01:20:13;;;;;;;8.43;5.60;;;;;;;21.39;100.00;99405.63;5071748;28;20199;-69
2023/06/22 01:22:52;;;;;;;8.23;5.47;;;;;;;21.39;100.00;99404.81;5071025;28;20766;-69
2023/06/22 01:25:27;;;;;;;9.37;5.67;;;;;;;21.34;100.00;99412.31;5070310;28;20206;-70
2023/06/22 01:28:02;;;;;;;9.25;5.53;;;;;;;21.33;100.00;99416.69;5071461;28;20212;-69
2023/06/22 01:30:33;;;;;;;9.17;5.83;;;;;;;21.34;100.00;99413.09;5070463;28;20206;-70
2023/06/22 01:33:02;;;;;;;9.10;5.60;;;;;;;21.35;100.00;99404.34;5070003;28;20233;-70
2023/06/22 01:35:30;;;;;;;8.18;5.10;;;;;;;21.32;100.00;99412.50;5070776;28;20195;-70
2023/06/22 01:37:57;;;;;;;10.80;5.60;;;;;;;21.24;100.00;99412.53;5071484;28;20210;-70
2023/06/22 01:40:25;;;;;;;10.43;5.93;;;;;;;21.21;100.00;99412.88;5069995;28;20213;-72
2023/06/22 01:42:52;;;;;;;8.00;5.37;;;;;;;21.20;100.00;99416.44;5070631;28;20619;-72
2023/06/22 01:45:20;;;;;;;8.53;5.40;;;;;;;21.16;100.00;99420.38;5070908;28;20206;-68
2023/06/22 01:47:48;;;;;;;10.60;5.50;;;;;;;21.13;100.00;99421.53;5070217;28;20661;-70
2023/06/22 01:50:16;;;;;;;8.10;5.30;;;;;;;21.12;100.00;99421.69;5070059;28;20206;-69
2023/06/22 01:52:43;;;;;;;11.27;5.77;;;;;;;21.09;100.00;99422.03;5070762;28;20224;-70
2023/06/22 01:55:10;;;;;;;9.97;5.73;;;;;;;21.06;100.00;99424.97;5070501;28;20203;-70
2023/06/22 01:57:38;;;;;;;10.10;5.63;;;;;;;21.05;100.00;99416.34;5069731;28;20216;-69
2023/06/22 02:00:08;;;;;;;9.30;5.43;;;;;;;21.01;100.00;99418.50;5070522;28;20216;-69
2023/06/22 02:02:44;;;;;;;9.43;5.47;;;;;;;20.95;100.00;99419.19;5070395;28;20280;-70
2023/06/22 02:05:16;;;;;;;8.60;5.60;;;;;;;20.91;100.00;99417.88;5069805;28;20198;-71
2023/06/22 02:07:47;;;;;;;11.77;5.80;;;;;;;20.81;100.00;99409.50;5070572;28;20229;-72
2023/06/22 02:10:17;;;;;;;9.00;5.00;;;;;;;20.76;100.00;99414.38;5070773;28;20213;-70
2023/06/22 02:12:45;;;;;;;8.97;5.53;;;;;;;20.76;100.00;99419.56;5069346;28;20224;-71
2023/06/22 02:15:14;;;;;;;10.40;6.10;;;;;;;20.72;100.00;99413.09;5070123;28;20208;-70
2023/06/22 02:17:44;;;;;;;10.17;5.90;;;;;;;20.71;100.00;99421.84;5070324;28;20311;-71
2023/06/22 02:20:15;;;;;;;9.00;5.47;;;;;;;20.66;100.00;99416.38;5069553;28;20206;-71
2023/06/22 02:22:42;;;;;;;9.03;5.90;;;;;;;20.67;100.00;99426.59;5067992;28;20233;-72
2023/06/22 02:25:09;;;;;;;9.33;5.40;;;;;;;20.59;100.00;99429.19;5069294;28;20213;-70
2023/06/22 02:27:36;;;;;;;9.90;5.93;;;;;;;20.58;100.00;99432.78;5070085;28;20228;-72
2023/06/22 02:30:03;;;;;;;11.17;5.67;;;;;;;20.56;100.00;99435.53;5069698;28;20210;-74
2023/06/22 02:32:30;;;;;;;8.80;5.73;;;;;;;20.54;100.00;99442.72;5069760;28;20675;-72
2023/06/22 02:34:57;;;;;;;8.33;5.23;;;;;;;20.54;100.00;99434.09;5070167;28;20205;-72
2023/06/22 02:37:29;;;;;;;9.77;5.30;;;;;;;20.56;100.00;99439.94;5069765;28;20220;-72
2023/06/22 02:39:56;;;;;;;11.07;5.73;;;;;;;20.54;100.00;99436.72;5069788;28;20210;-71
2023/06/22 02:42:23;;;;;;;8.93;6.20;;;;;;;20.54;100.00;99442.72;5068733;28;20236;-70
2023/06/22 02:44:49;;;;;;;8.73;5.90;;;;;;;20.46;100.00;99445.28;5070062;28;20197;-71
2023/06/22 02:47:16;;;;;;;10.67;6.30;;;;;;;20.36;100.00;99442.03;5069546;28;20220;-71
2023/06/22 02:49:44;;;;;;;10.93;6.40;;;;;;;20.30;100.00;99447.91;5070204;28;20210;-70
2023/06/22 02:52:11;;;;;;;9.00;6.07;;;;;;;20.24;100.00;99445.97;5069684;28;20231;-71
2023/06/22 02:54:40;;;;;;;11.13;5.87;;;;;;;20.16;100.00;99449.41;5070206;28;20205;-72
2023/06/22 02:57:06;;;;;;;12.60;6.60;;;;;;;20.13;100.00;99453.13;5069497;28;20225;-71
2023/06/22 02:59:33;;;;;;;10.60;6.43;;;;;;;20.12;100.00;99459.28;5069970;28;20218;-72
2023/06/22 03:02:00;;;;;;;11.17;6.37;;;;;;;20.10;100.00;99458.66;5069484;28;20233;-72
2023/06/22 03:04:27;;;;;;;11.67;6.23;;;;;;;20.09;100.00;99451.81;5069819;28;20564;-72
2023/06/22 03:06:54;;;;;;;9.87;6.63;;;;;;;20.06;100.00;99470.31;5069357;28;20232;-71
2023/06/22 03:09:21;;;;;;;13.17;6.47;;;;;;;20.04;100.00;99463.66;5069761;28;20603;-72
2023/06/22 03:11:49;;;;;;;10.87;6.73;;;;;;;20.01;100.00;99462.22;5069303;28;20228;-71
2023/06/22 03:14:16;;;;;;;12.37;6.83;;;;;;;19.97;100.00;99460.91;5069638;28;20203;-72
2023/06/22 03:16:43;;;;;;;13.40;7.20;;;;;;;19.94;100.00;99461.22;5069401;28;20757;-71
2023/06/22 03:19:10;;;;;;;13.33;7.10;;;;;;;19.87;100.00;99460.28;5069644;28;20205;-71
2023/06/22 03:21:39;;;;;;;13.03;7.10;;;;;;;19.80;100.00;99467.88;5069465;28;20256;-72
2023/06/22 03:24:06;;;;;;;10.90;7.00;;;;;;;19.75;100.00;99467.56;5069136;28;20247;-71
2023/06/22 03:26:34;;;;;;;12.30;6.47;;;;;;;19.72;100.00;99467.84;5068977;28;20226;-70
2023/06/22 03:29:03;;;;;;;14.20;6.63;;;;;;;19.68;100.00;99466.56;5069908;28;20328;-71
2023/06/22 03:31:29;;;;;;;14.37;7.27;;;;;;;19.65;100.00;99475.47;5069285;28;20233;-72
2023/06/22 03:33:56;;;;;;;15.63;6.77;;;;;;;19.65;100.00;99482.44;5069675;28;20199;-72
2023/06/22 03:36:23;;;;;;;12.47;6.63;;;;;;;19.62;100.00;99478.34;5069472;28;20225;-72
2023/06/22 03:38:51;;;;;;;12.77;6.97;;;;;;;19.65;100.00;99478.06;5069419;28;20582;-71
2023/06/22 03:41:18;;;;;;;11.87;6.60;;;;;;;19.65;100.00;99483.25;5068913;28;20225;-71
2023/06/22 03:43:45;;;;;;;16.17;6.90;;;;;;;19.64;100.00;99489.41;5069252;28;20239;-71
2023/06/22 03:46:13;;;;;;;13.43;7.30;;;;;;;19.65;100.00;99493.63;5069127;28;20619;-70
2023/06/22 03:48:40;;;;;;;11.73;7.00;;;;;;;19.68;100.00;99498.50;5069363;28;20595;-72
2023/06/22 03:51:07;;;;;;;11.10;7.20;;;;;;;19.71;100.00;99496.56;5068929;28;20217;-72
2023/06/22 03:53:34;;;;;;;12.63;7.07;;;;;;;19.71;100.00;99494.78;5071075;28;20212;-71
2023/06/22 03:56:01;;;;;;;13.73;7.20;;;;;;;19.73;100.00;99494.63;5072971;28;20728;-71
2023/06/22 03:58:32;;;;;;;13.90;7.97;;;;;;;19.81;100.00;99495.47;5072947;28;20476;-71
2023/06/22 04:00:59;;;;;;;13.87;7.13;;;;;;;19.85;100.00;99488.16;5072530;28;20258;-72
2023/06/22 04:03:28;;;;;;;13.57;7.57;;;;;;;19.95;100.00;99494.00;5072798;28;20233;-72
2023/06/22 04:05:54;;;;;;;14.33;7.17;;;;;;;20.01;100.00;99485.59;5072497;28;20709;-71
2023/06/22 04:08:21;;;;;;;11.37;7.10;;;;;;;20.09;100.00;99487.34;5072519;28;20200;-72
2023/06/22 04:10:48;;;;;;;14.30;7.70;;;;;;;20.13;100.00;99481.69;5072258;28;20742;-71
2023/06/22 04:13:15;;;;;;;14.57;8.00;;;;;;;20.22;100.00;99479.91;5072828;28;20210;-71
2023/06/22 04:15:42;;;;;;;15.63;8.17;;;;;;;20.27;100.00;99476.78;5072248;28;20713;-72
2023/06/22 04:18:09;;;;;;;16.17;8.03;;;;;;;20.31;100.00;99462.53;5072499;28;20202;-72
2023/06/22 04:20:37;;;;;;;14.67;7.63;;;;;;;20.41;100.00;99468.34;5072436;28;20216;-70
2023/06/22 04:23:04;;;;;;;13.43;7.43;;;;;;;20.54;100.00;99468.69;5072506;28;20656;-72
2023/06/22 04:25:31;;;;;;;14.80;8.60;;;;;;;20.62;100.00;99464.44;5072017;28;20213;-71
2023/06/22 04:27:57;;;;;;;12.80;7.83;;;;;;;20.66;100.00;99465.75;5072445;28;20202;-70
2023/06/22 04:30:24;;;;;;;12.63;7.57;;;;;;;20.80;100.00;99468.47;5072293;28;20214;-70
2023/06/22 04:32:57;;;;;;;13.63;7.60;;;;;;;20.90;100.00;99468.25;5072463;28;20244;-70
2023/06/22 04:35:24;;;;;;;14.17;7.77;;;;;;;20.98;100.00;99476.03;5071983;28;20660;-71
2023/06/22 04:37:54;;;;;;;14.27;7.73;;;;;;;21.08;100.00;99480.22;5072134;28;20197;-71
2023/06/22 04:40:22;;;;;;;14.27;7.40;;;;;;;21.20;100.00;99484.06;5072397;28;20222;-71
2023/06/22 04:42:52;;;;;;;13.27;8.07;;;;;;;21.33;100.00;99489.53;5071979;28;20234;-71
2023/06/22 04:45:20;;;;;;;18.00;7.77;;;;;;;21.48;100.00;99492.25;5072015;28;20298;-70
2023/06/22 04:47:47;;;;;;;14.00;7.90;;;;;;;21.63;100.00;99494.91;5071944;28;20221;-70
2023/06/22 04:50:14;;;;;;;10.47;7.23;;;;;;;21.75;100.00;99498.72;5071923;28;20199;-70
2023/06/22 04:52:41;;;;;;;13.32;7.65;;;;;;;21.88;100.00;99509.41;5071750;28;20309;-71
2023/06/22 04:55:10;;;;;;;11.87;7.50;;;;;;;21.99;100.00;99504.75;5072026;28;20209;-71
2023/06/22 04:57:39;;;;;;;12.43;7.03;;;;;;;22.14;100.00;99513.44;5071673;28;20222;-71
2023/06/22 05:00:12;;;;;;;11.32;7.25;;;;;;;22.37;100.00;99514.25;5071663;28;20605;-72
2023/06/22 05:02:39;;;;;;;13.48;7.50;;;;;;;22.57;100.00;99511.13;5071551;28;20233;-71
2023/06/22 05:05:07;;;;;;;10.50;6.65;;;;;;;22.78;100.00;99511.25;5071058;28;20195;-72
2023/06/22 05:07:34;;;;;;;10.68;6.82;;;;;;;22.98;100.00;99515.94;5071446;28;20578;-71
2023/06/22 05:10:01;;;;;;;12.90;6.93;;;;;;;23.22;100.00;99518.28;5071526;28;20207;-71
2023/06/22 05:12:31;;;;;;;11.55;6.45;;;;;;;23.50;100.00;99530.63;5071177;28;20218;-72
2023/06/22 05:14:58;;;;;;;13.45;7.07;;;;;;;23.70;100.00;99533.47;5071770;28;20574;-70
2023/06/22 05:17:25;;;;;;;12.65;7.25;;;;;;;23.87;100.00;99541.91;5071364;28;20231;-71
2023/06/22 05:19:52;;;;;;;9.32;6.55;;;;;;;24.03;100.00;99539.06;5071572;28;20203;-71
2023/06/22 05:22:19;;;;;;;9.77;6.35;;;;;;;24.14;100.00;99538.56;5071237;28;20227;-72
2023/06/22 05:24:46;;;;;;;8.60;6.05;;;;;;;24.24;100.00;99540.03;5071253;28;20210;-71
2023/06/22 05:27:13;;;;;;;8.52;5.82;;;;;;;24.36;100.00;99538.53;5070926;28;20222;-71
2023/06/22 05:29:42;;;;;;;10.70;7.10;;;;;;;24.52;100.00;99538.28;5071481;28;20211;-72
2023/06/22 05:32:09;;;;;;;8.68;5.90;;;;;;;24.65;100.00;99539.38;5070984;28;20221;-71
2023/06/22 05:34:36;;;;;;;9.55;6.47;;;;;;;24.77;100.00;99540.44;5071194;28;20206;-71
2023/06/22 05:37:03;;;;;;;7.50;6.03;;;;;;;24.92;100.00;99546.38;5071173;28;20890;-70
2023/06/22 05:39:30;;;;;;;10.02;6.40;;;;;;;25.08;100.00;99535.59;5071680;28;20225;-69
2023/06/22 05:41:57;;;;;;;8.57;6.00;;;;;;;25.23;100.00;99538.09;5070745;28;20227;-70
2023/06/22 05:44:24;;;;;;;9.30;6.03;;;;;;;25.35;100.00;99542.78;5070763;28;20238;-69
2023/06/22 05:46:52;;;;;;;9.73;6.10;;;;;;;25.44;100.00;99537.16;5070567;28;20231;-71
2023/06/22 05:49:19;;;;;;;9.75;6.15;;;;;;;25.49;100.00;99537.41;5070866;28;20199;-71
2023/06/22 05:51:45;;;;;;;10.07;6.05;;;;;;;25.57;100.00;99540.84;5070724;28;20222;-70
2023/06/22 05:54:13;;;;;;;9.13;5.88;;;;;;;25.56;98.83;99541.84;5070763;28;20199;-71
2023/06/22 05:56:40;;;;;;;7.22;4.70;;;;;;;25.60;94.17;99553.53;5070801;28;20592;-72
2023/06/22 05:59:07;;;;;;;8.85;5.80;;;;;;;25.63;98.98;99542.69;5070851;28;20199;-70
2023/06/22 06:01:35;;;;;;;7.80;5.53;;;;;;;25.77;98.94;99541.69;5070375;28;20219;-71
2023/06/22 06:04:04;;;;;;;8.93;5.32;;;;;;;26.00;95.95;99548.41;5070368;28;20775;-71
2023/06/22 06:06:31;;;;;;;9.55;5.40;;;;;;;25.97;94.18;99550.41;5070389;28;21460;-72
2023/06/22 06:08:59;;;;;;;11.60;5.45;;;;;;;26.08;95.46;99558.72;5070618;28;20207;-71
2023/06/22 06:11:26;;;;;;;8.15;5.60;;;;;;;26.08;91.70;99554.28;5070125;28;20218;-69
2023/06/22 06:13:53;;;;;;;7.85;5.13;;;;;;;26.11;89.27;99560.94;5070368;28;20203;-70
2023/06/22 06:16:20;;;;;;;8.68;5.15;;;;;;;26.01;86.54;99555.28;5070023;28;20266;-71
2023/06/22 06:18:48;;;;;;;8.15;4.75;;;;;;;25.97;90.07;99558.28;5070365;28;20688;-70
2023/06/22 06:21:16;;;;;;;7.15;4.78;;;;;;;26.02;88.41;99556.91;5070185;28;20683;-71
2023/06/22 06:23:43;;;;;;;7.63;5.03;;;;;;;25.93;85.22;99558.91;5070015;28;20238;-70
2023/06/22 06:26:10;;;;;;;6.88;4.57;;;;;;;26.09;90.17;99548.03;5070194;28;20227;-71
2023/06/22 06:28:37;;;;;;;6.53;4.90;;;;;;;26.30;84.40;99554.91;5069975;28;20203;-70
2023/06/22 06:31:06;;;;;;;6.60;4.95;;;;;;;26.38;83.45;99557.31;5069873;28;20214;-70
2023/06/22 06:33:33;;;;;;;9.38;5.00;;;;;;;26.66;89.47;99547.66;5069844;28;20194;-70
2023/06/22 06:36:03;;;;;;;7.65;4.95;;;;;;;27.00;87.84;99559.69;5069612;28;20230;-70
2023/06/22 06:38:31;;;;;;;8.60;5.10;;;;;;;27.01;79.83;99550.78;5069799;28;20778;-70
2023/06/22 06:40:59;;;;;;;7.45;4.82;;;;;;;27.31;86.07;99546.69;5069889;28;20221;-71
2023/06/22 06:43:26;;;;;;;6.57;4.50;;;;;;;27.57;84.46;99555.44;5069857;28;20253;-71
2023/06/22 06:45:52;;;;;;;6.22;4.32;;;;;;;27.58;73.95;99562.31;5069763;28;20221;-71
2023/06/22 06:48:19;;;;;;;4.95;3.88;;;;;;;27.53;72.33;99562.13;5069778;28;20207;-71
2023/06/22 06:50:46;;;;;;;5.70;4.38;;;;;;;27.55;74.07;99562.75;5069957;28;20218;-71
2023/06/22 06:53:13;;;;;;;7.85;4.82;;;;;;;27.72;73.04;99563.88;5069910;28;20203;-72
2023/06/22 06:55:41;;;;;;;12.52;4.60;;;;;;;27.88;74.70;99562.56;5069675;28;20198;-70
2023/06/22 06:58:09;;;;;;;6.63;4.47;;;;;;;28.14;75.29;99566.03;5069652;28;20198;-70
2023/06/22 07:00:36;;;;;;;6.03;4.53;;;;;;;28.32;72.92;99562.66;5069653;28;20222;-71
2023/06/22 07:03:03;;;;;;;6.07;4.05;;;;;;;28.44;69.90;99567.03;5069439;28;20325;-69
2023/06/22 07:05:30;;;;;;;6.50;3.80;;;;;;;28.70;71.98;99570.44;5069791;28;20558;-71
2023/06/22 07:07:57;;;;;;;6.15;4.72;;;;;;;28.86;69.11;99569.09;5069679;28;20202;-70
2023/06/22 07:10:24;;;;;;;6.43;4.35;;;;;;;28.89;67.28;99563.38;5069676;28;20203;-70
2023/06/22 07:12:52;;;;;;;5.75;4.32;;;;;;;29.03;64.21;99570.16;5069625;28;20221;-69
2023/06/22 07:15:19;;;;;;;6.78;4.85;;;;;;;29.02;67.37;99555.38;5070042;28;20210;-69
2023/06/22 07:17:46;;;;;;;8.05;4.80;;;;;;;29.31;74.31;99555.63;5069535;28;20203;-71
2023/06/22 07:20:13;;;;;;;13.25;9.32;;;;;;;29.34;71.60;99553.34;5069552;28;20206;-71
2023/06/22 07:22:42;;;;;;;9.07;6.20;;;;;;;29.56;68.35;99558.16;5069674;28;20702;-69
2023/06/22 07:25:10;;;;;;;6.18;4.82;;;;;;;29.56;63.99;99564.22;5069417;28;20288;-67
2023/06/22 07:27:39;;;;;;;7.97;5.35;;;;;;;29.30;66.25;99573.28;5069826;28;20218;-68
2023/06/22 07:30:09;;;;;;;8.10;5.85;;;;;;;29.63;68.13;99558.09;5073465;28;20286;-71
2023/06/22 07:32:36;;;;;;;12.57;5.85;;;;;;;29.80;70.97;99569.63;5073311;28;20229;-69
2023/06/22 07:35:04;;;;;;;6.45;4.80;;;;;;;29.94;69.33;99563.13;5073213;28;20222;-69
2023/06/22 07:37:33;;;;;;;7.22;4.75;;;;;;;29.59;62.22;99568.25;5073169;28;20706;-71
2023/06/22 07:39:59;;;;;;;7.43;5.00;;;;;;;29.59;66.57;99562.19;5073097;28;20209;-70
2023/06/22 07:42:26;;;;;;;6.93;5.28;;;;;;;29.63;62.38;99558.91;5073012;28;20215;-70
2023/06/22 07:44:54;;;;;;;6.70;4.93;;;;;;;29.79;65.84;99562.75;5073297;28;20230;-69
2023/06/22 07:47:25;;;;;;;6.68;4.90;;;;;;;29.59;62.20;99559.56;5072738;28;20219;-70
2023/06/22 07:49:51;;;;;;;7.70;5.60;;;;;;;29.92;66.32;99552.00;5072970;28;20202;-71
2023/06/22 07:52:18;;;;;;;6.28;4.78;;;;;;;30.27;64.30;99556.53;5072933;28;20230;-69
2023/06/22 07:54:46;;;;;;;6.20;4.97;;;;;;;30.70;70.36;99552.75;5073060;28;20604;-70
2023/06/22 07:57:12;;;;;;;5.70;4.55;;;;;;;30.81;58.56;99564.38;5073043;28;20218;-70
2023/06/22 07:59:39;;;;;;;5.45;4.32;;;;;;;30.98;60.15;99559.16;5073001;28;20214;-69
2023/06/22 08:02:08;;;;;;;6.15;4.35;;;;;;;30.93;55.84;99559.09;5072652;28;20226;-69
2023/06/22 08:04:36;;;;;;;5.95;4.53;;;;;;;30.92;54.04;99566.19;5072990;28;20238;-70
2023/06/22 08:07:04;;;;;;;7.60;4.47;;;;;;;30.95;54.32;99562.28;5072170;28;20703;-71
2023/06/22 08:09:32;;;;;;;6.00;4.32;;;;;;;30.99;58.95;99558.16;5071021;28;20217;-71
2023/06/22 08:12:00;;;;;;;5.95;4.70;;;;;;;31.22;58.09;99562.56;5070747;28;20222;-71
2023/06/22 08:14:27;;;;;;;5.78;4.40;;;;;;;31.47;56.02;99570.19;5070727;28;20206;-70
2023/06/22 08:16:54;;;;;;;5.57;4.13;;;;;;;31.62;55.28;99565.22;5071457;28;20890;-72
2023/06/22 08:19:20;;;;;;;5.50;4.47;;;;;;;31.73;57.77;99561.69;5072555;28;20268;-71
2023/06/22 08:21:49;;;;;;;6.80;5.05;;;;;;;32.02;61.21;99570.41;5072450;28;20225;-70
2023/06/22 08:24:15;;;;;;;6.72;4.75;;;;;;;32.20;55.70;99564.09;5071532;28;20234;-70
2023/06/22 08:26:42;;;;;;;6.43;4.63;;;;;;;32.44;56.04;99571.84;5071740;28;20226;-69
2023/06/22 08:29:10;;;;;;;8.13;5.20;;;;;;;32.46;53.96;99569.78;5072555;28;20597;-72
2023/06/22 08:31:37;;;;;;;6.55;4.95;;;;;;;32.32;54.17;99560.53;5071924;28;20749;-72
2023/06/22 08:34:04;;;;;;;5.70;4.50;;;;;;;32.51;54.55;99564.56;5071454;28;20217;-70
2023/06/22 08:36:32;;;;;;;5.80;4.65;;;;;;;32.45;53.75;99553.09;5071988;28;20497;-70
2023/06/22 08:39:01;;;;;;;6.03;5.00;;;;;;;32.58;60.93;99559.91;5071362;28;20659;-72
2023/06/22 08:41:28;;;;;;;6.72;4.95;;;;;;;32.83;55.16;99561.28;5070709;28;20230;-72
2023/06/22 08:43:55;;;;;;;6.53;4.70;;;;;;;32.63;52.14;99562.63;5072336;28;20234;-72
2023/06/22 08:46:29;;;;;;;5.55;4.55;;;;;;;32.52;50.89;99555.56;5071854;28;20221;-70
2023/06/22 08:48:57;;;;;;;6.75;4.82;;;;;;;32.80;52.59;99553.84;5072381;28;20580;-71
2023/06/22 08:51:23;;;;;;;5.30;4.50;;;;;;;33.09;53.53;99555.28;5071322;28;20219;-72
2023/06/22 08:53:50;;;;;;;8.43;4.90;;;;;;;33.20;54.00;99558.06;5071837;28;20210;-72
2023/06/22 08:56:19;;;;;;;5.85;4.72;;;;;;;33.23;50.38;99560.22;5072004;28;21085;-71
2023/06/22 08:58:45;;;;;;;8.30;4.93;;;;;;;32.66;51.23;99559.47;5071873;28;20194;-70
2023/06/22 09:01:12;;;;;;;6.70;4.75;;;;;;;33.02;57.95;99561.84;5071776;28;20215;-72
2023/06/22 09:03:39;;;;;;;6.80;5.07;;;;;;;33.11;51.23;99561.16;5071934;28;20210;-72
2023/06/22 09:06:06;;;;;;;5.72;4.47;;;;;;;33.24;50.56;99553.84;5071501;28;20245;-72
2023/06/22 09:08:33;;;;;;;5.88;4.75;;;;;;;33.16;49.11;99563.03;5071639;28;20210;-70
2023/06/22 09:11:00;;;;;;;5.90;4.53;;;;;;;32.81;50.89;99556.22;5071925;28;20592;-72
2023/06/22 09:13:31;;;;;;;5.72;4.60;;;;;;;33.14;49.56;99560.66;5071678;28;20210;-70
2023/06/22 09:15:59;;;;;;;5.35;4.50;;;;;;;33.41;52.46;99554.56;5071613;28;20226;-72
2023/06/22 09:18:26;;;;;;;6.05;4.68;;;;;;;33.58;51.69;99549.22;5071301;28;20642;-72
2023/06/22 09:20:53;;;;;;;7.18;4.32;;;;;;;33.69;52.97;99544.81;5071320;28;20223;-71
2023/06/22 09:23:20;;;;;;;5.88;4.60;;;;;;;33.83;46.82;99553.94;5071206;28;20205;-72
2023/06/22 09:25:47;;;;;;;5.97;4.53;;;;;;;33.90;51.37;99557.19;5071047;28;20685;-71
2023/06/22 09:28:15;;;;;;;5.93;4.68;;;;;;;33.91;48.29;99548.16;5071210;28;20203;-71
2023/06/22 09:30:44;;;;;;;5.90;4.82;;;;;;;33.93;50.66;99546.06;5071091;28;20222;-71
2023/06/22 09:33:10;;;;;;;6.22;4.70;;;;;;;33.81;45.01;99550.75;5071262;28;20199;-72
2023/06/22 09:35:37;;;;;;;6.13;4.53;;;;;;;33.95;49.92;99551.13;5070709;28;20194;-71
2023/06/22 09:38:04;;;;;;;6.38;4.68;;;;;;;33.94;52.15;99546.84;5071076;28;20218;-72
2023/06/22 09:40:32;;;;;;;5.00;4.00;;;;;;;33.90;46.14;99549.22;5071198;28;20199;-71
2023/06/22 09:42:59;;;;;;;5.57;4.68;;;;;;;34.08;52.15;99557.88;5070771;28;20290;-73
2023/06/22 09:45:26;;;;;;;6.22;4.63;;;;;;;34.02;50.46;99557.81;5070712;28;20226;-70
2023/06/22 09:47:54;;;;;;;5.88;4.70;;;;;;;34.02;50.57;99563.13;5070855;28;20195;-72
2023/06/22 09:50:21;;;;;;;6.43;4.88;;;;;;;34.18;50.93;99558.78;5070336;28;20282;-71
2023/06/22 09:52:50;;;;;;;7.47;4.63;;;;;;;34.23;45.53;99550.03;5070460;28;20206;-72
2023/06/22 09:55:17;;;;;;;5.47;4.53;;;;;;;34.52;49.79;99553.13;5070553;28;20300;-73
2023/06/22 09:57:44;;;;;;;5.82;4.70;;;;;;;34.45;46.95;99552.56;5070725;28;20218;-72
2023/06/22 10:00:13;;;;;;;5.90;4.88;;;;;;;34.33;50.37;99544.78;5070777;28;20209;-72
2023/06/22 10:02:40;;;;;;;5.88;4.57;;;;;;;34.50;49.09;99541.94;5070470;28;20214;-71
2023/06/22 10:05:08;;;;;;;5.72;4.82;;;;;;;34.67;49.58;99539.94;5070508;28;20230;-73
2023/06/22 10:07:39;;;;;;;5.20;4.25;;;;;;;34.59;44.74;99542.28;5070179;28;20222;-72
2023/06/22 10:10:07;;;;;;;5.20;4.43;;;;;;;34.47;44.65;99540.63;5070642;28;20920;-73
2023/06/22 10:12:34;;;;;;;6.45;4.80;;;;;;;34.60;45.96;99538.59;5070296;28;20238;-72
2023/06/22 10:15:01;;;;;;;7.82;5.15;;;;;;;34.59;46.82;99529.00;5070629;28;20210;-73
2023/06/22 10:17:27;;;;;;;5.63;4.55;;;;;;;34.83;48.65;99527.56;5069972;28;20606;-72
2023/06/22 10:19:54;;;;;;;5.95;4.70;;;;;;;34.43;45.66;99534.22;5070231;28;20230;-72
2023/06/22 10:22:22;;;;;;;6.45;4.88;;;;;;;34.30;49.16;99526.72;5070216;28;20229;-73
2023/06/22 10:24:49;;;;;;;5.93;4.63;;;;;;;34.46;48.33;99528.41;5070192;28;20235;-72
2023/06/22 10:27:16;;;;;;;5.93;4.65;;;;;;;34.68;45.49;99522.19;5069914;28;20223;-73
2023/06/22 10:29:43;;;;;;;6.00;4.80;;;;;;;34.86;48.81;99516.41;5070161;28;20195;-71
2023/06/22 10:32:11;;;;;;;5.68;4.47;;;;;;;34.98;48.71;99513.50;5070012;28;20215;-73
2023/06/22 10:34:38;;;;;;;8.38;4.72;;;;;;;35.11;48.16;99514.91;5070182;28;20199;-72
2023/06/22 10:37:05;;;;;;;6.80;5.07;;;;;;;34.92;46.54;99515.34;5069799;28;20226;-72
2023/06/22 10:39:34;;;;;;;5.60;4.82;;;;;;;34.91;42.79;99516.44;5070399;28;20195;-73
2023/06/22 10:42:00;;;;;;;5.75;4.78;;;;;;;34.78;45.34;99519.56;5069841;28;20225;-72
2023/06/22 10:44:27;;;;;;;6.60;4.97;;;;;;;34.77;44.80;99512.66;5070027;28;20237;-73
2023/06/22 10:46:54;;;;;;;5.60;4.68;;;;;;;34.86;42.75;99511.09;5069911;28;20598;-73
2023/06/22 10:49:21;;;;;;;4.88;4.38;;;;;;;34.60;44.17;99506.72;5069915;28;20199;-71
2023/06/22 10:51:48;;;;;;;5.65;4.65;;;;;;;34.72;44.04;99503.84;5069582;28;20223;-71
2023/06/22 10:54:17;;;;;;;6.32;4.65;;;;;;;34.57;43.26;99512.56;5070086;28;20206;-71
2023/06/22 10:56:45;;;;;;;5.00;3.92;;;;;;;34.69;43.64;99505.97;5070207;28;20225;-73
2023/06/22 10:59:12;;;;;;;5.43;4.43;;;;;;;34.68;46.75;99500.94;5069120;28;20198;-72
2023/06/22 11:01:39;;;;;;;5.28;4.40;;;;;;;34.74;42.99;99513.16;5069442;28;20613;-71
2023/06/22 11:04:05;;;;;;;6.13;4.75;;;;;;;34.85;41.74;99506.00;5069000;28;20209;-73
2023/06/22 11:06:33;;;;;;;6.05;4.78;;;;;;;34.47;46.18;99514.09;5069706;28;20406;-73
2023/06/22 11:08:59;;;;;;;6.13;4.85;;;;;;;34.39;42.77;99511.91;5069594;28;20591;-73
2023/06/22 11:11:27;;;;;;;6.22;4.60;;;;;;;34.24;44.76;99503.88;5069672;28;20241;-73
2023/06/22 11:13:55;;;;;;;5.82;4.72;;;;;;;34.21;44.14;99515.78;5069668;28;20194;-73
2023/06/22 11:16:22;;;;;;;5.15;4.38;;;;;;;33.86;42.82;99518.97;5069637;28;20215;-72
2023/06/22 11:18:49;;;;;;;5.57;4.15;;;;;;;33.84;45.69;99515.75;5069417;28;20195;-73
2023/06/22 11:21:16;;;;;;;11.85;4.90;;;;;;;33.71;46.20;99508.22;5069435;28;20596;-72
2023/06/22 11:23:43;;;;;;;6.03;4.70;;;;;;;33.65;47.06;99511.88;5069319;28;20245;-72
2023/06/22 11:26:10;;;;;;;6.50;4.60;;;;;;;33.67;45.24;99515.09;5069502;28;20624;-72
2023/06/22 11:28:37;;;;;;;6.35;4.70;;;;;;;33.74;46.57;99502.41;5069407;28;20191;-72